createdAt,value
2022-09-28T00:01:17.382Z,10.80
2022-09-28T00:03:45.719Z,10.80
2022-09-28T00:06:15.977Z,10.70
2022-09-28T00:08:43.751Z,10.70
2022-09-28T00:11:12.868Z,10.80
2022-09-28T00:13:40.828Z,10.70
2022-09-28T00:16:09.532Z,10.70
2022-09-28T00:18:37.172Z,10.70
2022-09-28T00:21:05.763Z,10.70
2022-09-28T00:23:55.656Z,10.70
2022-09-28T00:26:23.624Z,10.70
2022-09-28T00:28:52.300Z,10.70
2022-09-28T00:31:19.951Z,10.60
2022-09-28T00:33:50.380Z,10.60
2022-09-28T00:36:17.957Z,10.70
2022-09-28T00:38:47.292Z,10.70
2022-09-28T00:41:15.438Z,10.70
2022-09-28T00:43:43.033Z,10.70
2022-09-28T00:46:12.740Z,10.70
2022-09-28T00:48:42.241Z,10.70
2022-09-28T00:51:11.718Z,10.60
2022-09-28T00:53:41.118Z,10.60
2022-09-28T00:56:11.818Z,10.60
2022-09-28T00:58:41.742Z,10.50
2022-09-28T01:01:09.593Z,10.50
2022-09-28T01:03:38.542Z,10.40
2022-09-28T01:06:07.325Z,10.50
2022-09-28T01:08:35.334Z,10.50
2022-09-28T01:11:03.678Z,10.40
2022-09-28T01:13:33.072Z,10.30
2022-09-28T01:16:08.095Z,10.30
2022-09-28T01:18:38.496Z,10.30
2022-09-28T01:21:11.725Z,10.00
2022-09-28T01:24:00.742Z,10.10
2022-09-28T01:26:49.720Z,10.20
2022-09-28T01:29:20.472Z,10.20
2022-09-28T01:31:51.285Z,10.20
2022-09-28T01:34:21.716Z,10.10
2022-09-28T01:36:50.856Z,9.90
2022-09-28T01:39:21.137Z,9.90
2022-09-28T01:41:52.455Z,9.70
2022-09-28T01:44:21.532Z,9.60
2022-09-28T01:46:49.909Z,9.50
2022-09-28T01:49:19.923Z,9.50
2022-09-28T01:51:51.056Z,9.40
2022-09-28T01:54:20.834Z,9.30
2022-09-28T01:56:52.042Z,9.20
2022-09-28T01:59:21.218Z,9.20
2022-09-28T02:01:50.134Z,9.00
2022-09-28T02:04:19.352Z,8.80
2022-09-28T02:06:49.957Z,8.80
2022-09-28T02:09:20.127Z,8.70
2022-09-28T02:11:50.382Z,8.80
2022-09-28T02:14:19.765Z,8.80
2022-09-28T02:16:48.675Z,8.70
2022-09-28T02:19:17.718Z,8.80
2022-09-28T02:21:48.502Z,8.70
2022-09-28T02:24:21.403Z,8.70
2022-09-28T02:26:51.197Z,8.60
2022-09-28T02:29:20.133Z,8.50
2022-09-28T02:31:47.840Z,8.50
2022-09-28T02:34:15.502Z,8.50
2022-09-28T02:36:44.955Z,8.50
2022-09-28T02:39:13.993Z,8.50
2022-09-28T02:41:48.022Z,8.40
2022-09-28T02:44:19.357Z,8.30
2022-09-28T02:46:50.421Z,8.30
2022-09-28T02:49:22.514Z,8.10
2022-09-28T02:51:57.309Z,8.20
2022-09-28T02:54:29.812Z,8.10
2022-09-28T02:57:04.335Z,8.10
2022-09-28T02:59:36.678Z,8.10
2022-09-28T03:02:10.064Z,8.10
2022-09-28T03:04:41.196Z,8.00
2022-09-28T03:07:12.581Z,8.00
2022-09-28T03:09:44.841Z,8.00
2022-09-28T03:12:14.612Z,8.00
2022-09-28T03:14:42.257Z,8.00
2022-09-28T03:17:11.148Z,8.10
2022-09-28T03:19:38.860Z,8.00
2022-09-28T03:22:08.011Z,8.00
2022-09-28T03:24:35.595Z,8.10
2022-09-28T03:27:03.130Z,8.10
2022-09-28T03:29:33.024Z,8.00
2022-09-28T03:32:00.597Z,7.90
2022-09-28T03:34:29.548Z,8.00
2022-09-28T03:36:57.078Z,8.10
2022-09-28T03:39:24.651Z,8.20
2022-09-28T03:41:52.287Z,8.30
2022-09-28T03:44:20.126Z,8.40
2022-09-28T03:46:47.710Z,8.40
2022-09-28T03:49:15.374Z,8.40
2022-09-28T03:51:44.367Z,8.50
2022-09-28T03:54:12.953Z,8.50
2022-09-28T03:56:40.819Z,8.50
2022-09-28T03:59:08.462Z,8.50
2022-09-28T04:01:36.151Z,8.50
2022-09-28T04:04:03.813Z,8.60
2022-09-28T04:06:31.369Z,8.60
2022-09-28T04:09:00.457Z,8.70
2022-09-28T04:11:34.899Z,8.70
2022-09-28T04:14:10.473Z,8.70
2022-09-28T04:16:38.071Z,8.70
2022-09-28T04:19:05.733Z,8.70
2022-09-28T04:21:34.016Z,8.70
2022-09-28T04:24:03.049Z,8.70
2022-09-28T04:26:30.775Z,8.80
2022-09-28T04:29:15.929Z,8.80
2022-09-28T04:31:45.418Z,8.70
2022-09-28T04:34:14.647Z,8.80
2022-09-28T04:36:42.211Z,8.80
2022-09-28T04:39:11.331Z,8.80
2022-09-28T04:41:38.939Z,8.80
2022-09-28T04:44:06.781Z,8.80
2022-09-28T04:46:34.556Z,8.90
2022-09-28T04:49:02.134Z,8.90
2022-09-28T04:51:31.337Z,8.90
2022-09-28T04:53:59.003Z,8.90
2022-09-28T04:56:27.917Z,8.90
2022-09-28T04:58:55.537Z,8.90
2022-09-28T05:01:24.167Z,8.90
2022-09-28T05:03:51.976Z,8.90
2022-09-28T05:06:19.598Z,8.90
2022-09-28T05:08:47.716Z,8.90
2022-09-28T05:11:15.491Z,8.90
2022-09-28T05:13:45.247Z,8.90
2022-09-28T05:16:13.833Z,8.90
2022-09-28T05:18:41.466Z,9.00
2022-09-28T05:21:12.733Z,8.90
2022-09-28T05:23:40.686Z,8.90
2022-09-28T05:26:08.449Z,9.00
2022-09-28T05:28:36.076Z,8.90
2022-09-28T05:31:05.447Z,9.00
2022-09-28T05:33:33.447Z,9.00
2022-09-28T05:36:01.811Z,9.00
2022-09-28T05:38:30.168Z,8.90
2022-09-28T05:40:57.952Z,9.00
2022-09-28T05:43:25.700Z,9.00
2022-09-28T05:45:55.850Z,8.90
2022-09-28T05:48:25.183Z,9.00
2022-09-28T05:50:52.919Z,9.00
2022-09-28T05:53:20.858Z,8.90
2022-09-28T05:55:48.793Z,9.00
2022-09-28T05:58:16.455Z,9.00
2022-09-28T06:00:44.096Z,9.10
2022-09-28T06:03:12.761Z,9.10
2022-09-28T06:05:42.044Z,9.10
2022-09-28T06:08:10.810Z,9.10
2022-09-28T06:10:38.823Z,9.10
2022-09-28T06:13:07.109Z,9.00
2022-09-28T06:15:35.374Z,9.10
2022-09-28T06:18:03.945Z,9.00
2022-09-28T06:20:36.398Z,9.10
2022-09-28T06:23:05.449Z,9.10
2022-09-28T06:25:33.057Z,9.00
2022-09-28T06:28:01.535Z,9.00
2022-09-28T06:30:30.063Z,9.00
2022-09-28T06:32:58.209Z,9.00
2022-09-28T06:35:26.790Z,9.00
2022-09-28T06:37:54.428Z,9.00
2022-09-28T06:40:23.444Z,9.00
2022-09-28T06:42:57.882Z,9.00
2022-09-28T06:45:25.942Z,9.00
2022-09-28T06:47:54.122Z,9.00
2022-09-28T06:50:21.732Z,9.00
2022-09-28T06:52:50.771Z,9.00
2022-09-28T06:55:18.354Z,9.00
2022-09-28T06:57:47.530Z,9.10
2022-09-28T07:00:15.631Z,9.20
2022-09-28T07:02:43.264Z,9.20
2022-09-28T07:05:13.745Z,9.20
2022-09-28T07:07:42.900Z,9.20
2022-09-28T07:10:11.015Z,9.20
2022-09-28T07:12:38.840Z,9.10
2022-09-28T07:15:09.095Z,9.20
2022-09-28T07:17:50.328Z,9.20
2022-09-28T07:20:22.332Z,9.20
2022-09-28T07:22:53.545Z,9.20
2022-09-28T07:25:21.336Z,9.20
2022-09-28T07:27:49.019Z,9.30
2022-09-28T07:30:18.044Z,9.40
2022-09-28T07:32:46.367Z,9.40
2022-09-28T07:35:13.977Z,9.40
2022-09-28T07:37:41.579Z,9.50
2022-09-28T07:40:27.513Z,9.50
2022-09-28T07:42:55.569Z,9.50
2022-09-28T07:45:24.748Z,9.60
2022-09-28T07:47:55.343Z,9.60
2022-09-28T07:50:23.010Z,9.70
2022-09-28T07:52:50.632Z,9.70
2022-09-28T07:55:18.195Z,9.70
2022-09-28T07:57:47.039Z,9.80
2022-09-28T08:00:15.138Z,9.80
2022-09-28T08:02:44.182Z,9.80
2022-09-28T08:05:12.668Z,9.80
2022-09-28T08:07:40.810Z,9.80
2022-09-28T08:10:08.756Z,9.90
2022-09-28T08:12:36.773Z,10.00
2022-09-28T08:15:06.606Z,10.00
2022-09-28T08:17:34.232Z,10.10
2022-09-28T08:20:20.801Z,10.10
2022-09-28T08:22:48.413Z,10.20
2022-09-28T08:25:16.033Z,10.30
2022-09-28T08:27:43.598Z,10.30
2022-09-28T08:30:11.628Z,10.40
2022-09-28T08:32:39.227Z,10.40
2022-09-28T08:35:08.584Z,10.40
2022-09-28T08:37:36.161Z,10.50
2022-09-28T08:40:03.823Z,10.50
2022-09-28T08:42:33.944Z,10.50
2022-09-28T08:45:07.304Z,10.60
2022-09-28T08:47:54.305Z,10.60
2022-09-28T08:50:26.869Z,10.60
2022-09-28T08:52:56.481Z,10.70
2022-09-28T08:55:27.602Z,10.70
2022-09-28T08:57:58.925Z,10.70
2022-09-28T09:00:32.229Z,10.70
2022-09-28T09:02:59.910Z,10.70
2022-09-28T09:05:38.545Z,10.60
2022-09-28T09:08:16.921Z,10.60
2022-09-28T09:10:49.685Z,10.60
2022-09-28T09:13:35.023Z,10.60
2022-09-28T09:16:07.226Z,10.60
2022-09-28T09:18:37.281Z,10.80
2022-09-28T09:21:10.730Z,10.60
2022-09-28T09:23:39.540Z,10.70
2022-09-28T09:26:14.881Z,10.70
2022-09-28T09:29:01.521Z,10.70
2022-09-28T09:31:37.158Z,10.80
2022-09-28T09:34:11.734Z,10.70
2022-09-28T09:36:46.357Z,10.80
2022-09-28T09:39:27.670Z,10.80
2022-09-28T09:42:02.692Z,10.80
2022-09-28T09:44:40.588Z,10.80
2022-09-28T09:47:09.016Z,10.90
2022-09-28T09:49:39.633Z,10.90
2022-09-28T09:52:12.116Z,10.90
2022-09-28T09:54:46.025Z,10.90
2022-09-28T09:57:16.409Z,10.80
2022-09-28T09:59:45.082Z,10.80
2022-09-28T10:02:16.720Z,10.80
2022-09-28T10:04:46.935Z,10.90
2022-09-28T10:07:19.750Z,10.90
2022-09-28T10:09:49.226Z,11.00
2022-09-28T10:12:18.745Z,10.90
2022-09-28T10:14:46.451Z,10.90
2022-09-28T10:17:16.154Z,11.00
2022-09-28T10:19:44.236Z,11.00
2022-09-28T10:22:14.566Z,11.00
2022-09-28T10:24:45.273Z,11.00
2022-09-28T10:27:15.000Z,11.10
2022-09-28T10:29:46.931Z,11.10
2022-09-28T10:32:23.003Z,11.10
2022-09-28T10:34:51.660Z,11.10
2022-09-28T10:37:19.768Z,11.00
2022-09-28T10:39:51.653Z,10.90
2022-09-28T10:42:20.589Z,10.90
2022-09-28T10:44:52.593Z,11.10
2022-09-28T10:47:20.974Z,11.10
2022-09-28T10:49:50.477Z,11.20
2022-09-28T10:52:36.243Z,11.20
2022-09-28T10:55:25.175Z,11.20
2022-09-28T10:57:53.013Z,11.20
2022-09-28T11:00:34.455Z,11.30
2022-09-28T11:03:02.527Z,11.30
2022-09-28T11:05:30.518Z,11.10
2022-09-28T11:07:59.802Z,11.10
2022-09-28T11:10:30.308Z,11.20
2022-09-28T11:12:58.336Z,11.20
2022-09-28T11:15:28.143Z,11.30
2022-09-28T11:17:55.745Z,11.50
2022-09-28T11:20:30.173Z,11.60
2022-09-28T11:22:58.261Z,11.60
2022-09-28T11:25:26.829Z,11.60
2022-09-28T11:28:00.500Z,11.70
2022-09-28T11:30:29.149Z,11.80
2022-09-28T11:33:01.702Z,11.80
2022-09-28T11:35:32.520Z,11.80
2022-09-28T11:38:04.466Z,12.00
2022-09-28T11:40:40.151Z,11.90
2022-09-28T11:43:15.968Z,11.90
2022-09-28T11:45:55.430Z,12.00
2022-09-28T11:48:24.985Z,12.00
2022-09-28T11:50:54.608Z,12.00
2022-09-28T11:53:25.979Z,12.00
2022-09-28T11:55:57.470Z,12.00
2022-09-28T11:58:28.619Z,12.10
2022-09-28T12:01:00.525Z,12.10
2022-09-28T12:03:32.027Z,12.10
2022-09-28T12:06:01.705Z,12.10
2022-09-28T12:08:31.096Z,12.10
2022-09-28T12:11:00.515Z,12.10
2022-09-28T12:13:31.061Z,12.20
2022-09-28T12:16:23.459Z,12.20
2022-09-28T12:18:50.435Z,12.20
2022-09-28T12:21:33.187Z,12.20
2022-09-28T12:24:03.807Z,12.30
2022-09-28T12:26:37.251Z,12.40
2022-09-28T12:29:11.383Z,12.30
2022-09-28T12:31:40.816Z,12.40
2022-09-28T12:34:10.056Z,12.60
2022-09-28T12:36:42.245Z,12.70
2022-09-28T12:39:27.033Z,12.80
2022-09-28T12:42:06.990Z,12.70
2022-09-28T12:44:47.745Z,12.60
2022-09-28T12:47:26.161Z,12.70
2022-09-28T12:52:58.152Z,12.70
2022-09-28T12:55:36.110Z,12.80
2022-09-28T12:58:07.550Z,12.80
2022-09-28T13:00:41.099Z,12.70
2022-09-28T13:03:16.860Z,12.70
2022-09-28T13:06:04.447Z,12.60
2022-09-28T13:08:36.771Z,12.40
2022-09-28T13:11:08.158Z,12.50
2022-09-28T13:13:42.186Z,12.50
2022-09-28T13:16:17.502Z,12.60
2022-09-28T13:18:50.171Z,12.50
2022-09-28T13:21:22.266Z,12.50
2022-09-28T13:23:51.338Z,12.40
2022-09-28T13:26:23.635Z,12.40
2022-09-28T13:28:54.609Z,12.40
2022-09-28T13:31:30.898Z,12.40
2022-09-28T13:34:00.783Z,12.40
2022-09-28T13:36:38.847Z,12.30
2022-09-28T13:39:21.549Z,12.40
2022-09-28T13:41:50.612Z,12.40
2022-09-28T13:44:26.474Z,12.50
2022-09-28T13:47:10.102Z,12.50
2022-09-28T13:49:43.241Z,12.40
2022-09-28T13:52:13.901Z,12.50
2022-09-28T13:54:51.342Z,12.40
2022-09-28T13:57:24.012Z,12.50
2022-09-28T14:00:12.374Z,12.50
2022-09-28T14:02:43.186Z,12.60
2022-09-28T14:05:25.944Z,13.60
2022-09-28T14:07:59.396Z,12.70
2022-09-28T14:10:42.373Z,12.70
2022-09-28T14:13:10.298Z,12.70
2022-09-28T14:15:46.171Z,12.70
2022-09-28T14:18:31.561Z,12.50
2022-09-28T14:21:20.634Z,12.60
2022-09-28T14:24:01.305Z,12.40
2022-09-28T14:26:43.477Z,12.40
2022-09-28T14:29:18.039Z,12.40
2022-09-28T14:31:45.654Z,12.30
2022-09-28T14:34:37.396Z,12.30
2022-09-28T14:37:35.923Z,12.30
2022-09-28T14:40:28.004Z,12.30
2022-09-28T14:43:16.807Z,12.30
2022-09-28T14:45:45.817Z,12.20
2022-09-28T14:48:15.458Z,12.20
2022-09-28T14:50:43.213Z,12.20
2022-09-28T14:53:13.862Z,12.20
2022-09-28T14:55:49.842Z,12.10
2022-09-28T14:58:20.503Z,11.90
2022-09-28T15:00:49.310Z,11.90
2022-09-28T15:03:17.296Z,12.00
2022-09-28T15:05:47.123Z,12.10
2022-09-28T15:08:18.000Z,12.00
2022-09-28T15:10:46.442Z,11.80
2022-09-28T15:13:19.377Z,11.80
2022-09-28T15:15:50.378Z,11.80
2022-09-28T15:18:34.522Z,11.80
2022-09-28T15:21:02.234Z,11.90
2022-09-28T15:23:36.377Z,11.80
2022-09-28T15:26:06.626Z,11.70
2022-09-28T15:28:35.183Z,11.80
2022-09-28T15:31:03.636Z,11.60
2022-09-28T15:33:50.080Z,11.60
2022-09-28T15:36:19.900Z,11.60
2022-09-28T15:38:52.536Z,11.70
2022-09-28T15:41:20.189Z,11.60
2022-09-28T15:44:04.279Z,11.60
2022-09-28T15:46:32.097Z,11.60
2022-09-28T15:49:00.219Z,11.50
2022-09-28T15:51:28.736Z,11.60
2022-09-28T15:53:59.837Z,11.70
2022-09-28T15:56:28.090Z,11.80
2022-09-28T15:59:11.762Z,11.80
2022-09-28T16:01:39.911Z,11.70
2022-09-28T16:04:26.145Z,11.70
2022-09-28T16:07:06.752Z,11.80
2022-09-28T16:09:54.108Z,11.80
2022-09-28T16:12:21.844Z,11.70
2022-09-28T16:14:49.876Z,11.80
2022-09-28T16:17:19.283Z,11.70
2022-09-28T16:19:49.409Z,11.70
2022-09-28T16:22:24.482Z,11.70
2022-09-28T16:24:57.870Z,11.60
2022-09-28T16:27:27.558Z,11.40
2022-09-28T16:30:14.030Z,11.60
2022-09-28T16:32:48.883Z,11.60
2022-09-28T16:35:22.094Z,11.60
2022-09-28T16:37:55.288Z,11.70
2022-09-28T16:40:24.407Z,11.70
2022-09-28T16:42:52.614Z,11.70
2022-09-28T16:45:21.586Z,11.60
2022-09-28T16:47:52.844Z,11.60
2022-09-28T16:50:21.301Z,11.60
2022-09-28T16:53:08.065Z,11.60
2022-09-28T16:55:40.949Z,11.60
2022-09-28T16:58:09.214Z,11.60
2022-09-28T17:00:36.783Z,11.70
2022-09-28T17:03:11.938Z,11.70
2022-09-28T17:05:40.163Z,11.70
2022-09-28T17:08:07.983Z,11.70
2022-09-28T17:10:56.184Z,11.70
2022-09-28T17:13:33.387Z,11.70
2022-09-28T17:16:01.753Z,11.70
2022-09-28T17:18:31.847Z,11.60
2022-09-28T17:21:01.018Z,11.40
2022-09-28T17:23:28.617Z,11.20
2022-09-28T17:25:58.915Z,11.30
2022-09-28T17:28:27.944Z,11.30
2022-09-28T17:30:56.559Z,11.30
2022-09-28T17:33:24.262Z,11.40
2022-09-28T17:35:53.339Z,11.20
2022-09-28T17:38:20.929Z,11.20
2022-09-28T17:40:48.520Z,11.20
2022-09-28T17:43:17.487Z,11.30
2022-09-28T17:45:46.965Z,11.30
2022-09-28T17:48:16.104Z,11.10
2022-09-28T17:50:46.608Z,11.20
2022-09-28T17:53:14.650Z,11.30
2022-09-28T17:55:43.377Z,11.20
2022-09-28T17:58:16.486Z,11.20
2022-09-28T18:00:46.314Z,11.20
2022-09-28T18:03:15.348Z,11.10
2022-09-28T18:05:43.449Z,11.20
2022-09-28T18:08:13.096Z,11.10
2022-09-28T18:10:40.866Z,11.10
2022-09-28T18:13:08.692Z,11.00
2022-09-28T18:15:36.625Z,10.90
2022-09-28T18:18:09.409Z,11.10
2022-09-28T18:20:37.655Z,10.90
2022-09-28T18:23:05.735Z,11.00
2022-09-28T18:25:33.484Z,10.80
2022-09-28T18:28:01.293Z,10.80
2022-09-28T18:30:29.081Z,10.60
2022-09-28T18:32:56.791Z,10.60
2022-09-28T18:35:25.774Z,10.60
2022-09-28T18:37:53.594Z,10.70
2022-09-28T18:40:21.796Z,10.70
2022-09-28T18:42:50.232Z,10.70
2022-09-28T18:45:18.566Z,10.70
2022-09-28T18:47:46.483Z,10.70
2022-09-28T18:50:15.375Z,10.50
2022-09-28T18:52:47.157Z,10.50
2022-09-28T18:55:14.998Z,10.30
2022-09-28T18:57:44.081Z,10.30
2022-09-28T19:00:12.523Z,10.20
2022-09-28T19:02:40.307Z,10.10
2022-09-28T19:05:08.289Z,10.10
2022-09-28T19:07:35.949Z,10.20
2022-09-28T19:10:05.498Z,10.30
2022-09-28T19:12:33.433Z,10.30
2022-09-28T19:15:01.078Z,10.20
2022-09-28T19:17:29.049Z,10.20
2022-09-28T19:19:56.721Z,10.10
2022-09-28T19:22:24.393Z,10.20
2022-09-28T19:24:52.039Z,10.20
2022-09-28T19:27:21.059Z,10.20
2022-09-28T19:29:48.886Z,10.30
2022-09-28T19:32:16.576Z,10.20
2022-09-28T19:34:44.276Z,10.20
2022-09-28T19:37:12.275Z,10.30
2022-09-28T19:39:39.949Z,10.20
2022-09-28T19:42:07.890Z,10.20
2022-09-28T19:44:37.290Z,10.10
2022-09-28T19:47:07.065Z,10.10
2022-09-28T19:49:36.995Z,10.20
2022-09-28T19:52:13.186Z,10.20
2022-09-28T19:54:43.685Z,10.20
2022-09-28T19:57:15.837Z,10.10
2022-09-28T19:59:48.374Z,10.10
2022-09-28T20:02:18.797Z,10.20
2022-09-28T20:04:46.660Z,10.10
2022-09-28T20:07:14.560Z,10.20
2022-09-28T20:09:42.328Z,10.30
2022-09-28T20:12:10.020Z,10.30
2022-09-28T20:14:39.614Z,10.30
2022-09-28T20:17:10.112Z,10.40
2022-09-28T20:19:38.077Z,10.50
2022-09-28T20:22:05.734Z,10.50
2022-09-28T20:24:33.515Z,10.50
2022-09-28T20:27:01.840Z,10.40
2022-09-28T20:29:31.532Z,10.20
2022-09-28T20:31:59.526Z,10.10
2022-09-28T20:34:28.772Z,10.10
2022-09-28T20:36:56.449Z,10.10
2022-09-28T20:39:24.119Z,10.10
2022-09-28T20:41:51.991Z,10.10
2022-09-28T20:44:19.888Z,9.90
2022-09-28T20:46:50.302Z,10.00
2022-09-28T20:49:17.972Z,9.90
2022-09-28T20:51:47.078Z,10.00
2022-09-28T20:54:14.741Z,10.10
2022-09-28T20:56:42.432Z,10.10
2022-09-28T20:59:11.153Z,10.20
2022-09-28T21:01:38.910Z,10.20
2022-09-28T21:04:07.667Z,10.30
2022-09-28T21:06:36.403Z,10.40
2022-09-28T21:09:06.422Z,10.40
2022-09-28T21:11:35.418Z,10.20
2022-09-28T21:14:03.703Z,10.10
2022-09-28T21:16:32.162Z,10.20
2022-09-28T21:19:00.085Z,10.20
2022-09-28T21:21:28.137Z,10.10
2022-09-28T21:23:56.331Z,10.00
2022-09-28T21:26:26.669Z,10.10
2022-09-28T21:28:54.608Z,10.30
2022-09-28T21:31:27.562Z,10.30
2022-09-28T21:33:56.574Z,10.30
2022-09-28T21:36:24.529Z,10.20
2022-09-28T21:38:52.345Z,10.10
2022-09-28T21:41:20.030Z,10.00
2022-09-28T21:43:49.037Z,10.00
2022-09-28T21:46:17.540Z,10.00
2022-09-28T21:48:45.402Z,10.00
2022-09-28T21:51:14.261Z,10.20
2022-09-28T21:53:42.552Z,10.10
2022-09-28T21:56:10.901Z,10.10
2022-09-28T21:58:38.868Z,10.00
2022-09-28T22:01:09.018Z,10.00
2022-09-28T22:03:37.259Z,10.00
2022-09-28T22:06:05.116Z,9.90
2022-09-28T22:08:32.861Z,9.80
2022-09-28T22:11:01.533Z,10.00
2022-09-28T22:13:29.394Z,10.00
2022-09-28T22:15:58.781Z,9.80
2022-09-28T22:18:28.745Z,9.90
2022-09-28T22:21:00.280Z,10.00
2022-09-28T22:23:28.252Z,9.90
2022-09-28T22:25:59.788Z,10.00
2022-09-28T22:28:27.516Z,10.00
2022-09-28T22:30:55.194Z,10.00
2022-09-28T22:33:22.895Z,10.00
2022-09-28T22:35:51.943Z,10.00
2022-09-28T22:38:19.825Z,10.00
2022-09-28T22:40:50.924Z,10.10
2022-09-28T22:43:19.338Z,10.10
2022-09-28T22:45:47.222Z,10.20
2022-09-28T22:48:14.888Z,10.00
2022-09-28T22:50:48.636Z,10.10
2022-09-28T22:53:18.107Z,10.00
2022-09-28T22:55:45.778Z,9.80
2022-09-28T22:58:13.715Z,9.80
2022-09-28T23:00:41.693Z,9.80
2022-09-28T23:03:09.573Z,10.00
2022-09-28T23:05:37.345Z,9.90
2022-09-28T23:08:05.060Z,9.70
2022-09-28T23:10:34.037Z,9.90
2022-09-28T23:13:01.699Z,9.90
2022-09-28T23:15:29.851Z,9.70
2022-09-28T23:17:57.525Z,9.70
2022-09-28T23:20:25.484Z,9.60
2022-09-28T23:22:53.161Z,9.70
2022-09-28T23:25:20.809Z,9.90
2022-09-28T23:27:50.131Z,10.00
2022-09-28T23:30:19.270Z,10.00
2022-09-28T23:32:47.109Z,9.80
2022-09-28T23:35:14.798Z,9.70
2022-09-28T23:37:42.472Z,9.80
2022-09-28T23:40:10.527Z,9.80
2022-09-28T23:42:38.236Z,9.70
2022-09-28T23:45:07.797Z,9.70
2022-09-28T23:47:37.328Z,9.80
2022-09-28T23:50:05.259Z,9.80
2022-09-28T23:52:33.064Z,9.80
2022-09-28T23:55:00.733Z,9.80
2022-09-28T23:57:28.403Z,9.80
2022-09-28T23:59:56.061Z,9.70
